Time;durP1;ratioP1;P1;durP2;ratioP2;P2;SDS_P1;SDS_P2;PMS_P1;PMS_P2;Temp;Humidity;BMP_temperature;BMP_pressure;BME280_temperature;BME280_humidity;BME280_pressure;Samples;Min_cycle;Max_cycle;Signal;HPM_P1;HPM_P2
2023/11/29 00:00:55;;;;;;;;;;;;;;;;;;4977780;28;19952;-77
2023/11/29 00:03:22;;;;;;;;;;;;;;;;;;4978906;28;19913;-76
2023/11/29 00:05:52;;;;;;;;;;;;;;;;;;4995962;28;19910;-77
2023/11/29 00:08:20;;;;;;;;;;;;;;;;;;4995868;28;20385;-77
2023/11/29 00:10:46;;;;;;;;;;;;;;;;;;4974952;28;19920;-79
2023/11/29 00:13:11;;;;;;;;;;;;;;;;;;4991345;28;19910;-77
2023/11/29 00:15:39;;;;;;;;;;;;;;;;;;4992709;28;19913;-78
2023/11/29 00:18:05;;;;;;;;;;;;;;;;;;4987291;28;19925;-77
2023/11/29 00:20:31;;;;;;;;;;;;;;;;;;4978248;23;19981;-78
2023/11/29 00:22:57;;;;;;;;;;;;;;;;;;4974312;28;19910;-79
2023/11/29 00:25:22;;;;;;;;;;;;;;;;;;4976180;28;19914;-78
2023/11/29 00:27:48;;;;;;;;;;;;;;;;;;4974801;28;20300;-78
2023/11/29 00:30:13;;;;;;;;;;;;;;;;;;4958825;28;19914;-78
2023/11/29 00:32:38;;;;;;;;;;;;;;;;;;4974166;28;20373;-79
2023/11/29 00:35:04;;;;;;;;;;;;;;;;;;4955630;29;20289;-78
2023/11/29 00:37:29;;;;;;;;;;;;;;;;;;4955991;28;19918;-78
2023/11/29 00:39:54;;;;;;;;;;;;;;;;;;4955240;29;19915;-79
2023/11/29 00:42:20;;;;;;;;;;;;;;;;;;4954726;29;19922;-79
2023/11/29 00:44:46;;;;;;;;;;;;;;;;;;4957107;28;19911;-79
2023/11/29 00:47:13;;;;;;;;;;;;;;;;;;4971232;28;19922;-79
2023/11/29 00:49:38;;;;;;;;;;;;;;;;;;4956602;28;19915;-78
2023/11/29 00:52:03;;;;;;;;;;;;;;;;;;4942650;28;19957;-78
2023/11/29 00:54:29;;;;;;;;;;;;;;;;;;4943356;28;20428;-78
2023/11/29 00:56:54;;;;;;;;;;;;;;;;;;4974458;28;19918;-78
2023/11/29 00:59:19;;;;;;;;;;;;;;;;;;4975582;28;19914;-79
2023/11/29 01:01:45;;;;;;;;;;;;;;;;;;4975157;28;20399;-78
2023/11/29 01:04:10;;;;;;;;;;;;;;;;;;4976718;28;19914;-78
2023/11/29 01:06:36;;;;;;;;;;;;;;;;;;4976384;28;19914;-79
2023/11/29 01:09:04;;;;;;;;;;;;;;;;;;4977206;28;19914;-78
2023/11/29 01:11:29;;;;;;;;;;;;;;;;;;4966618;28;19914;-78
2023/11/29 01:13:54;;;;;;;;;;;;;;;;;;4996649;28;19960;-78
2023/11/29 01:16:21;;;;;;;;;;;;;;;;;;4998080;28;19918;-79
2023/11/29 01:18:46;;;;;;;;;;;;;;;;;;4997933;28;19918;-78
2023/11/29 01:21:12;;;;;;;;;;;;;;;;;;4997748;28;19917;-79
2023/11/29 01:23:37;;;;;;;;;;;;;;;;;;5013303;28;19941;-79
2023/11/29 01:26:02;;;;;;;;;;;;;;;;;;4998683;28;20456;-78
2023/11/29 01:28:28;;;;;;;;;;;;;;;;;;4958439;28;19914;-78
2023/11/29 01:30:53;;;;;;;;;;;;;;;;;;4959349;28;19961;-78
2023/11/29 01:33:19;;;;;;;;;;;;;;;;;;4973927;28;19941;-78
2023/11/29 01:35:44;;;;;;;;;;;;;;;;;;4990085;28;20003;-78
2023/11/29 01:38:10;;;;;;;;;;;;;;;;;;4975001;28;19929;-78
2023/11/29 01:40:36;;;;;;;;;;;;;;;;;;4959664;28;19918;-78
2023/11/29 01:43:01;;;;;;;;;;;;;;;;;;4972012;28;19914;-78
2023/11/29 01:45:27;;;;;;;;;;;;;;;;;;4958040;28;19910;-78
2023/11/29 01:47:52;;;;;;;;;;;;;;;;;;4957755;28;20013;-78
2023/11/29 01:50:18;;;;;;;;;;;;;;;;;;4960943;28;19973;-78
2023/11/29 01:52:43;;;;;;;;;;;;;;;;;;4963962;28;19921;-78
2023/11/29 01:55:09;;;;;;;;;;;;;;;;;;4949062;28;19937;-78
2023/11/29 01:57:35;;;;;;;;;;;;;;;;;;4981469;28;19918;-78
2023/11/29 02:00:00;;;;;;;;;;;;;;;;;;4964623;28;19914;-78
2023/11/29 02:02:25;;;;;;;;;;;;;;;;;;4979813;28;20369;-79
2023/11/29 02:04:51;;;;;;;;;;;;;;;;;;4958500;28;19981;-78
2023/11/29 02:07:16;;;;;;;;;;;;;;;;;;4975563;28;19945;-78
2023/11/29 02:09:41;;;;;;;;;;;;;;;;;;4975888;28;19914;-78
2023/11/29 02:12:07;;;;;;;;;;;;;;;;;;4973793;28;19920;-78
2023/11/29 02:14:32;;;;;;;;;;;;;;;;;;4989773;28;19914;-78
2023/11/29 02:16:58;;;;;;;;;;;;;;;;;;4961454;28;20407;-78
2023/11/29 02:19:23;;;;;;;;;;;;;;;;;;4979646;28;20346;-78
2023/11/29 02:21:48;;;;;;;;;;;;;;;;;;4973444;28;19918;-78
2023/11/29 02:24:17;;;;;;;;;;;;;;;;;;4958100;28;20382;-78
2023/11/29 02:26:43;;;;;;;;;;;;;;;;;;4973735;28;19917;-78
2023/11/29 02:29:08;;;;;;;;;;;;;;;;;;4958245;28;19911;-78
2023/11/29 02:31:33;;;;;;;;;;;;;;;;;;4957471;28;19937;-78
2023/11/29 02:34:01;;;;;;;;;;;;;;;;;;4957211;28;19914;-78
2023/11/29 02:36:26;;;;;;;;;;;;;;;;;;4969345;28;19978;-78
2023/11/29 02:38:52;;;;;;;;;;;;;;;;;;4955571;29;19954;-78
2023/11/29 02:41:17;;;;;;;;;;;;;;;;;;4954228;29;20370;-78
2023/11/29 02:43:43;;;;;;;;;;;;;;;;;;4954068;29;20289;-78
2023/11/29 02:46:08;;;;;;;;;;;;;;;;;;4953966;28;19914;-78
2023/11/29 02:48:33;;;;;;;;;;;;;;;;;;4974280;28;19979;-78
2023/11/29 02:50:59;;;;;;;;;;;;;;;;;;4959182;28;19923;-78
2023/11/29 02:53:24;;;;;;;;;;;;;;;;;;4977480;28;19914;-78
2023/11/29 02:55:49;;;;;;;;;;;;;;;;;;4944390;28;19914;-78
2023/11/29 02:58:15;;;;;;;;;;;;;;;;;;4977291;28;20020;-78
2023/11/29 03:00:40;;;;;;;;;;;;;;;;;;4960172;28;19960;-79
2023/11/29 03:03:05;;;;;;;;;;;;;;;;;;4975987;28;19914;-78
2023/11/29 03:05:31;;;;;;;;;;;;;;;;;;4976240;28;20421;-78
2023/11/29 03:07:56;;;;;;;;;;;;;;;;;;4960716;28;19918;-78
2023/11/29 03:10:21;;;;;;;;;;;;;;;;;;4959307;28;19914;-78
2023/11/29 03:12:47;;;;;;;;;;;;;;;;;;4976608;28;19922;-78
2023/11/29 03:15:12;;;;;;;;;;;;;;;;;;4961565;28;20281;-78
2023/11/29 03:17:38;;;;;;;;;;;;;;;;;;4979952;28;19921;-78
2023/11/29 03:20:03;;;;;;;;;;;;;;;;;;4980658;28;19918;-78
2023/11/29 03:22:29;;;;;;;;;;;;;;;;;;4978723;28;19970;-78
2023/11/29 03:24:54;;;;;;;;;;;;;;;;;;4978973;28;19964;-78
2023/11/29 03:27:19;;;;;;;;;;;;;;;;;;4980877;28;19914;-78
2023/11/29 03:29:45;;;;;;;;;;;;;;;;;;4964439;28;20540;-79
2023/11/29 03:32:10;;;;;;;;;;;;;;;;;;4963947;28;19941;-78
2023/11/29 03:34:36;;;;;;;;;;;;;;;;;;4964297;28;19918;-78
2023/11/29 03:37:01;;;;;;;;;;;;;;;;;;4980778;28;20009;-78
2023/11/29 03:39:26;;;;;;;;;;;;;;;;;;4979570;28;20399;-78
2023/11/29 03:41:52;;;;;;;;;;;;;;;;;;4976788;28;19914;-78
2023/11/29 03:44:18;;;;;;;;;;;;;;;;;;4975075;28;19949;-78
2023/11/29 03:46:44;;;;;;;;;;;;;;;;;;4975878;28;19945;-78
2023/11/29 03:49:09;;;;;;;;;;;;;;;;;;4959851;28;19914;-78
2023/11/29 03:51:35;;;;;;;;;;;;;;;;;;4960497;28;20158;-78
2023/11/29 03:54:00;;;;;;;;;;;;;;;;;;4943959;28;20314;-78
2023/11/29 03:56:25;;;;;;;;;;;;;;;;;;4944203;28;19918;-78
2023/11/29 03:58:51;;;;;;;;;;;;;;;;;;4976895;28;19911;-78
2023/11/29 04:01:16;;;;;;;;;;;;;;;;;;4960885;28;19930;-78
2023/11/29 04:03:42;;;;;;;;;;;;;;;;;;4963509;28;19980;-78
2023/11/29 04:06:07;;;;;;;;;;;;;;;;;;4992776;28;19926;-78
2023/11/29 04:08:32;;;;;;;;;;;;;;;;;;4966962;28;20354;-78
2023/11/29 04:10:58;;;;;;;;;;;;;;;;;;4981823;28;19902;-78
2023/11/29 04:13:24;;;;;;;;;;;;;;;;;;4966970;28;20001;-78
2023/11/29 04:15:50;;;;;;;;;;;;;;;;;;4982739;28;19925;-78
2023/11/29 04:18:15;;;;;;;;;;;;;;;;;;4983653;28;19926;-78
2023/11/29 04:20:41;;;;;;;;;;;;;;;;;;4984195;28;19922;-78
2023/11/29 04:23:06;;;;;;;;;;;;;;;;;;5000846;28;19910;-78
2023/11/29 04:25:31;;;;;;;;;;;;;;;;;;4981481;28;19914;-79
2023/11/29 04:27:57;;;;;;;;;;;;;;;;;;4975946;28;19914;-78
2023/11/29 04:30:23;;;;;;;;;;;;;;;;;;4974624;28;19914;-78
2023/11/29 04:32:49;;;;;;;;;;;;;;;;;;4958149;28;19922;-78
2023/11/29 04:35:14;;;;;;;;;;;;;;;;;;4973968;28;19915;-78
2023/11/29 04:37:39;;;;;;;;;;;;;;;;;;4942122;28;19922;-78
2023/11/29 04:40:06;;;;;;;;;;;;;;;;;;4942639;28;19918;-78
2023/11/29 04:42:31;;;;;;;;;;;;;;;;;;4976043;28;20395;-78
2023/11/29 04:44:57;;;;;;;;;;;;;;;;;;4973975;28;19917;-78
2023/11/29 04:47:23;;;;;;;;;;;;;;;;;;4957009;28;19914;-79
2023/11/29 04:49:49;;;;;;;;;;;;;;;;;;4957995;28;19910;-78
2023/11/29 04:52:14;;;;;;;;;;;;;;;;;;4959411;28;19914;-78
2023/11/29 04:54:39;;;;;;;;;;;;;;;;;;4974334;28;19922;-78
2023/11/29 04:57:05;;;;;;;;;;;;;;;;;;4974130;28;19925;-78
2023/11/29 04:59:31;;;;;;;;;;;;;;;;;;4976531;28;19911;-78
2023/11/29 05:01:57;;;;;;;;;;;;;;;;;;4957491;28;19953;-79
2023/11/29 05:04:23;;;;;;;;;;;;;;;;;;4941943;28;19950;-79
2023/11/29 05:06:48;;;;;;;;;;;;;;;;;;4957551;28;20304;-79
2023/11/29 05:09:14;;;;;;;;;;;;;;;;;;4957419;28;20277;-78
2023/11/29 05:11:40;;;;;;;;;;;;;;;;;;4974863;28;19918;-78
2023/11/29 05:14:06;;;;;;;;;;;;;;;;;;4973962;28;19925;-79
2023/11/29 05:16:31;;;;;;;;;;;;;;;;;;4958303;28;20330;-79
2023/11/29 05:18:56;;;;;;;;;;;;;;;;;;4987053;28;20004;-78
2023/11/29 05:21:22;;;;;;;;;;;;;;;;;;4957865;28;20397;-78
2023/11/29 05:23:48;;;;;;;;;;;;;;;;;;4942647;28;19910;-78
2023/11/29 05:26:14;;;;;;;;;;;;;;;;;;4975140;28;19914;-79
2023/11/29 05:28:39;;;;;;;;;;;;;;;;;;4975259;28;19957;-78
2023/11/29 05:31:05;;;;;;;;;;;;;;;;;;4958825;28;19914;-78
2023/11/29 05:33:30;;;;;;;;;;;;;;;;;;4976078;28;19910;-78
2023/11/29 05:35:56;;;;;;;;;;;;;;;;;;4973174;28;20029;-78
2023/11/29 05:38:23;;;;;;;;;;;;;;;;;;4957420;28;20454;-78
2023/11/29 05:40:48;;;;;;;;;;;;;;;;;;4974638;28;20300;-78
2023/11/29 05:43:14;;;;;;;;;;;;;;;;;;4973878;28;19941;-78
2023/11/29 05:45:39;;;;;;;;;;;;;;;;;;4956861;28;19914;-78
2023/11/29 05:48:05;;;;;;;;;;;;;;;;;;4974392;28;19961;-78
2023/11/29 05:50:30;;;;;;;;;;;;;;;;;;4943614;28;19911;-78
2023/11/29 05:52:55;;;;;;;;;;;;;;;;;;4958020;28;19924;-78
2023/11/29 05:55:22;;;;;;;;;;;;;;;;;;4957675;28;19917;-78
2023/11/29 05:57:47;;;;;;;;;;;;;;;;;;4975114;28;20012;-78
2023/11/29 06:00:13;;;;;;;;;;;;;;;;;;4973456;28;19949;-79
2023/11/29 06:02:39;;;;;;;;;;;;;;;;;;4942342;28;20285;-78
2023/11/29 06:05:05;;;;;;;;;;;;;;;;;;4958408;28;19961;-78
2023/11/29 06:07:30;;;;;;;;;;;;;;;;;;4941734;28;20342;-78
2023/11/29 06:09:55;;;;;;;;;;;;;;;;;;4975345;28;20074;-78
2023/11/29 06:12:21;;;;;;;;;;;;;;;;;;4941687;28;19938;-78
2023/11/29 06:14:48;;;;;;;;;;;;;;;;;;4957140;28;19916;-78
2023/11/29 06:17:13;;;;;;;;;;;;;;;;;;4941287;28;19918;-78
2023/11/29 06:19:39;;;;;;;;;;;;;;;;;;4971718;23;19944;-81
2023/11/29 06:22:05;;;;;;;;;;;;;;;;;;5005625;28;19949;-79
2023/11/29 06:24:31;;;;;;;;;;;;;;;;;;4989092;28;19921;-80
2023/11/29 06:26:57;;;;;;;;;;;;;;;;;;4975788;28;19910;-79
2023/11/29 06:29:22;;;;;;;;;;;;;;;;;;4990162;28;20400;-78
2023/11/29 06:31:48;;;;;;;;;;;;;;;;;;4988657;28;19909;-81
2023/11/29 06:34:13;;;;;;;;;;;;;;;;;;4973219;28;20393;-80
2023/11/29 06:36:39;;;;;;;;;;;;;;;;;;4957347;28;19937;-81
2023/11/29 06:39:05;;;;;;;;;;;;;;;;;;4957552;28;19913;-79
2023/11/29 06:41:30;;;;;;;;;;;;;;;;;;4957037;28;19910;-79
2023/11/29 06:43:56;;;;;;;;;;;;;;;;;;4957066;28;20329;-81
2023/11/29 06:46:22;;;;;;;;;;;;;;;;;;4974072;28;19916;-80
2023/11/29 06:48:47;;;;;;;;;;;;;;;;;;4975166;28;19918;-79
2023/11/29 06:51:13;;;;;;;;;;;;;;;;;;5010548;28;19921;-80
2023/11/29 06:53:38;;;;;;;;;;;;;;;;;;4977926;28;19977;-78
2023/11/29 06:56:04;;;;;;;;;;;;;;;;;;5010039;28;19941;-79
2023/11/29 06:58:30;;;;;;;;;;;;;;;;;;4962429;28;20289;-79
2023/11/29 07:00:56;;;;;;;;;;;;;;;;;;4980144;28;19914;-80
2023/11/29 07:03:21;;;;;;;;;;;;;;;;;;4967838;28;19942;-78
2023/11/29 07:05:47;;;;;;;;;;;;;;;;;;4984444;28;19914;-80
2023/11/29 07:08:12;;;;;;;;;;;;;;;;;;4999784;28;19917;-78
2023/11/29 07:10:38;;;;;;;;;;;;;;;;;;5016486;28;19940;-79
2023/11/29 07:13:05;;;;;;;;;;;;;;;;;;5018672;28;19902;-79
2023/11/29 07:15:31;;;;;;;;;;;;;;;;;;4983718;28;19909;-79
2023/11/29 07:17:56;;;;;;;;;;;;;;;;;;4999784;28;19929;-79
2023/11/29 07:20:22;;;;;;;;;;;;;;;;;;4985730;28;19933;-78
2023/11/29 07:22:57;;;;;;;;;;;;;;;;;;4967651;28;19921;-79
2023/11/29 07:25:22;;;;;;;;;;;;;;;;;;5007921;28;19914;-79
2023/11/29 07:27:48;;;;;;;;;;;;;;;;;;5011089;28;19921;-78
2023/11/29 07:30:13;;;;;;;;;;;;;;;;;;5008709;28;19916;-79
2023/11/29 07:32:39;;;;;;;;;;;;;;;;;;5015501;28;19964;-78
2023/11/29 07:35:05;;;;;;;;;;;;;;;;;;5013869;28;20017;-79
2023/11/29 07:37:31;;;;;;;;;;;;;;;;;;4980883;28;19918;-78
2023/11/29 07:39:56;;;;;;;;;;;;;;;;;;5005476;28;19910;-77
2023/11/29 07:42:22;;;;;;;;;;;;;;;;;;5002658;28;19914;-78
2023/11/29 07:44:49;;;;;;;;;;;;;;;;;;5019429;28;19964;-80
2023/11/29 07:47:16;;;;;;;;;;;;;;;;;;4958828;28;19909;-81
2023/11/29 07:49:44;;;;;;;;;;;;;;;;;;4958430;28;19914;-81
2023/11/29 07:52:12;;;;;;;;;;;;;;;;;;4957205;28;19941;-79
2023/11/29 07:54:38;;;;;;;;;;;;;;;;;;4987754;28;19918;-79
2023/11/29 07:57:04;;;;;;;;;;;;;;;;;;5003474;28;19914;-79
2023/11/29 07:59:30;;;;;;;;;;;;;;;;;;5006500;28;19957;-81
2023/11/29 08:01:55;;;;;;;;;;;;;;;;;;5006454;28;19917;-79
2023/11/29 08:04:21;;;;;;;;;;;;;;;;;;4989472;28;19914;-78
2023/11/29 08:06:46;;;;;;;;;;;;;;;;;;5004363;28;19910;-79
2023/11/29 08:09:12;;;;;;;;;;;;;;;;;;4984121;28;19913;-78
2023/11/29 08:11:39;;;;;;;;;;;;;;;;;;4984572;28;20333;-81
2023/11/29 08:14:05;;;;;;;;;;;;;;;;;;5000885;28;19973;-78
2023/11/29 08:16:30;;;;;;;;;;;;;;;;;;5001410;28;19945;-77
2023/11/29 08:18:57;;;;;;;;;;;;;;;;;;4983965;28;19941;-78
2023/11/29 08:21:22;;;;;;;;;;;;;;;;;;4985039;28;19917;-78
2023/11/29 08:23:48;;;;;;;;;;;;;;;;;;4986279;28;19960;-79
2023/11/29 08:26:14;;;;;;;;;;;;;;;;;;5008008;28;19945;-80
2023/11/29 08:28:40;;;;;;;;;;;;;;;;;;5002636;28;19914;-78
2023/11/29 08:31:05;;;;;;;;;;;;;;;;;;5000935;28;19917;-78
2023/11/29 08:33:31;;;;;;;;;;;;;;;;;;5001300;28;19914;-79
2023/11/29 08:35:57;;;;;;;;;;;;;;;;;;4999959;28;19936;-79
2023/11/29 08:38:23;;;;;;;;;;;;;;;;;;4986931;28;20008;-80
2023/11/29 08:40:50;;;;;;;;;;;;;;;;;;4984994;28;20005;-77
2023/11/29 08:43:20;;;;;;;;;;;;;;;;;;5000615;28;20495;-77
2023/11/29 08:45:46;;;;;;;;;;;;;;;;;;5000197;28;19914;-79
2023/11/29 08:48:11;;;;;;;;;;;;;;;;;;5001099;28;20341;-78
2023/11/29 08:50:36;;;;;;;;;;;;;;;;;;4990659;28;19914;-80
2023/11/29 08:53:04;;;;;;;;;;;;;;;;;;4991106;28;19925;-78
2023/11/29 08:55:29;;;;;;;;;;;;;;;;;;4994524;28;19910;-80
2023/11/29 08:57:55;;;;;;;;;;;;;;;;;;5009986;28;19918;-80
2023/11/29 09:00:21;;;;;;;;;;;;;;;;;;5009731;28;19920;-80
2023/11/29 09:02:47;;;;;;;;;;;;;;;;;;4992652;28;20365;-80
2023/11/29 09:05:12;;;;;;;;;;;;;;;;;;4992305;28;19960;-80
2023/11/29 09:07:38;;;;;;;;;;;;;;;;;;5009294;28;20312;-80
2023/11/29 09:10:05;;;;;;;;;;;;;;;;;;5009073;28;19949;-80
2023/11/29 09:12:30;;;;;;;;;;;;;;;;;;5008675;28;19910;-79
2023/11/29 09:14:56;;;;;;;;;;;;;;;;;;4992980;28;19914;-80
2023/11/29 09:17:22;;;;;;;;;;;;;;;;;;4992895;28;19973;-80
2023/11/29 09:19:47;;;;;;;;;;;;;;;;;;5010845;28;19914;-79
2023/11/29 09:22:12;;;;;;;;;;;;;;;;;;5023961;28;19918;-78
2023/11/29 09:24:38;;;;;;;;;;;;;;;;;;4982877;28;19913;-78
2023/11/29 09:27:07;;;;;;;;;;;;;;;;;;4997789;28;19969;-78
2023/11/29 09:29:35;;;;;;;;;;;;;;;;;;5016256;28;19914;-79
2023/11/29 09:32:01;;;;;;;;;;;;;;;;;;5000993;28;19921;-79
2023/11/29 09:34:28;;;;;;;;;;;;;;;;;;5018804;28;19933;-78
2023/11/29 09:36:56;;;;;;;;;;;;;;;;;;4984029;28;19918;-79
2023/11/29 09:39:21;;;;;;;;;;;;;;;;;;5000152;28;19914;-79
2023/11/29 09:41:48;;;;;;;;;;;;;;;;;;4999257;28;19957;-79
2023/11/29 09:44:14;;;;;;;;;;;;;;;;;;5004013;28;19940;-78
2023/11/29 09:46:39;;;;;;;;;;;;;;;;;;5005047;28;19913;-80
2023/11/29 09:49:05;;;;;;;;;;;;;;;;;;5006268;28;19914;-79
2023/11/29 09:51:30;;;;;;;;;;;;;;;;;;4988526;28;19910;-80
2023/11/29 09:53:56;;;;;;;;;;;;;;;;;;5007831;28;19919;-78
2023/11/29 09:56:22;;;;;;;;;;;;;;;;;;4996927;28;19909;-79
2023/11/29 09:58:47;;;;;;;;;;;;;;;;;;5014509;28;19960;-80
2023/11/29 10:01:13;;;;;;;;;;;;;;;;;;5013597;28;19918;-79
2023/11/29 10:03:38;;;;;;;;;;;;;;;;;;5010287;28;19910;-79
2023/11/29 10:06:07;;;;;;;;;;;;;;;;;;4994015;28;19914;-78
2023/11/29 10:08:32;;;;;;;;;;;;;;;;;;5011627;28;19910;-80
2023/11/29 10:11:00;;;;;;;;;;;;;;;;;;4994357;28;19921;-79
2023/11/29 10:13:25;;;;;;;;;;;;;;;;;;5015145;28;19913;-81
2023/11/29 10:15:51;;;;;;;;;;;;;;;;;;4999346;28;19913;-80
2023/11/29 10:18:17;;;;;;;;;;;;;;;;;;4996288;28;19918;-80
2023/11/29 10:20:42;;;;;;;;;;;;;;;;;;4996048;28;19917;-80
2023/11/29 10:23:08;;;;;;;;;;;;;;;;;;5026173;28;20060;-80
2023/11/29 10:25:34;;;;;;;;;;;;;;;;;;5011193;28;19933;-80
2023/11/29 10:27:59;;;;;;;;;;;;;;;;;;5010946;28;19937;-80
2023/11/29 10:30:25;;;;;;;;;;;;;;;;;;4995888;28;19948;-80
2023/11/29 10:32:51;;;;;;;;;;;;;;;;;;5008863;28;19914;-80
2023/11/29 10:35:16;;;;;;;;;;;;;;;;;;5008991;28;20296;-79
2023/11/29 10:37:42;;;;;;;;;;;;;;;;;;5013671;28;19973;-80
2023/11/29 10:40:07;;;;;;;;;;;;;;;;;;4998855;28;20367;-79
2023/11/29 10:42:33;;;;;;;;;;;;;;;;;;5014820;28;20365;-80
2023/11/29 10:44:59;;;;;;;;;;;;;;;;;;5015022;28;19921;-80
2023/11/29 10:47:26;;;;;;;;;;;;;;;;;;4996643;28;19913;-81
2023/11/29 10:49:53;;;;;;;;;;;;;;;;;;5011448;28;19918;-79
2023/11/29 10:52:18;;;;;;;;;;;;;;;;;;5013278;28;19910;-79
2023/11/29 10:54:45;;;;;;;;;;;;;;;;;;5028044;28;19914;-79
2023/11/29 10:57:11;;;;;;;;;;;;;;;;;;5027649;28;19913;-80
2023/11/29 10:59:36;;;;;;;;;;;;;;;;;;5011199;28;19933;-78
2023/11/29 11:02:02;;;;;;;;;;;;;;;;;;4993211;28;19936;-79
2023/11/29 11:04:27;;;;;;;;;;;;;;;;;;5010551;28;19993;-80
2023/11/29 11:06:55;;;;;;;;;;;;;;;;;;5011702;28;19918;-80
2023/11/29 11:09:21;;;;;;;;;;;;;;;;;;5027292;28;19944;-78
2023/11/29 11:11:46;;;;;;;;;;;;;;;;;;5010719;28;19917;-80
2023/11/29 11:14:12;;;;;;;;;;;;;;;;;;5010147;28;20373;-80
2023/11/29 11:16:38;;;;;;;;;;;;;;;;;;5027136;28;19932;-80
2023/11/29 11:19:05;;;;;;;;;;;;;;;;;;4994897;28;19937;-80
2023/11/29 11:21:30;;;;;;;;;;;;;;;;;;4995870;28;19917;-81
2023/11/29 11:24:00;;;;;;;;;;;;;;;;;;4996658;28;19969;-79
2023/11/29 11:26:25;;;;;;;;;;;;;;;;;;4996472;28;19913;-80
2023/11/29 11:28:51;;;;;;;;;;;;;;;;;;4996113;28;19914;-79
2023/11/29 11:31:17;;;;;;;;;;;;;;;;;;5028814;28;19932;-79
2023/11/29 11:33:43;;;;;;;;;;;;;;;;;;5030060;28;19918;-79
2023/11/29 11:36:08;;;;;;;;;;;;;;;;;;4997915;28;19910;-80
2023/11/29 11:38:34;;;;;;;;;;;;;;;;;;4998053;28;19924;-79
2023/11/29 11:40:59;;;;;;;;;;;;;;;;;;5013959;28;19914;-79
2023/11/29 11:43:25;;;;;;;;;;;;;;;;;;4995020;28;19910;-78
2023/11/29 11:45:50;;;;;;;;;;;;;;;;;;5011803;28;19953;-81
2023/11/29 11:48:16;;;;;;;;;;;;;;;;;;5028455;28;19914;-80
2023/11/29 11:50:42;;;;;;;;;;;;;;;;;;5011422;28;19920;-80
2023/11/29 11:53:07;;;;;;;;;;;;;;;;;;5013122;28;20262;-78
2023/11/29 11:55:33;;;;;;;;;;;;;;;;;;5028243;28;19922;-80
2023/11/29 11:57:59;;;;;;;;;;;;;;;;;;5026156;28;20581;-78
2023/11/29 12:00:25;;;;;;;;;;;;;;;;;;4992701;28;20017;-80
2023/11/29 12:02:51;;;;;;;;;;;;;;;;;;5005109;28;19910;-78
2023/11/29 12:05:16;;;;;;;;;;;;;;;;;;5007993;28;19914;-80
2023/11/29 12:07:43;;;;;;;;;;;;;;;;;;5005746;28;19914;-79
2023/11/29 12:10:08;;;;;;;;;;;;;;;;;;4988887;28;19913;-79
2023/11/29 12:12:34;;;;;;;;;;;;;;;;;;5005054;28;19913;-79
2023/11/29 12:15:03;;;;;;;;;;;;;;;;;;5005626;28;19909;-78
2023/11/29 12:17:28;;;;;;;;;;;;;;;;;;4990012;28;19977;-78
2023/11/29 12:19:54;;;;;;;;;;;;;;;;;;4989246;28;19914;-79
2023/11/29 12:22:19;;;;;;;;;;;;;;;;;;4989034;28;20373;-79
2023/11/29 12:24:45;;;;;;;;;;;;;;;;;;4989505;28;19914;-79
2023/11/29 12:27:12;;;;;;;;;;;;;;;;;;4989058;28;20304;-80
2023/11/29 12:29:38;;;;;;;;;;;;;;;;;;5019193;28;19937;-80
2023/11/29 12:32:03;;;;;;;;;;;;;;;;;;5002106;28;19969;-81
2023/11/29 12:34:29;;;;;;;;;;;;;;;;;;4989933;28;19973;-81
2023/11/29 12:36:57;;;;;;;;;;;;;;;;;;4958160;28;19933;-80
2023/11/29 12:39:24;;;;;;;;;;;;;;;;;;4987869;28;19913;-79
2023/11/29 12:41:50;;;;;;;;;;;;;;;;;;4958591;28;19917;-80
2023/11/29 12:44:16;;;;;;;;;;;;;;;;;;4953350;28;19965;-80
2023/11/29 12:46:41;;;;;;;;;;;;;;;;;;4954485;28;19945;-79
2023/11/29 12:49:07;;;;;;;;;;;;;;;;;;4952651;28;19914;-80
2023/11/29 12:51:35;;;;;;;;;;;;;;;;;;4993420;28;20002;-81
2023/11/29 12:54:02;;;;;;;;;;;;;;;;;;4986892;28;19910;-79
2023/11/29 12:56:28;;;;;;;;;;;;;;;;;;4986415;28;19913;-80
2023/11/29 12:58:53;;;;;;;;;;;;;;;;;;4987028;28;20250;-80
2023/11/29 13:01:19;;;;;;;;;;;;;;;;;;4985445;28;19948;-80
2023/11/29 13:03:45;;;;;;;;;;;;;;;;;;4986343;28;19978;-78
2023/11/29 13:06:10;;;;;;;;;;;;;;;;;;4981881;28;19914;-79
2023/11/29 13:08:36;;;;;;;;;;;;;;;;;;4969821;28;19910;-80
2023/11/29 13:11:02;;;;;;;;;;;;;;;;;;4984605;28;19918;-79
2023/11/29 13:13:28;;;;;;;;;;;;;;;;;;4999354;28;19974;-79
2023/11/29 13:15:53;;;;;;;;;;;;;;;;;;4967338;28;19921;-79
2023/11/29 13:18:19;;;;;;;;;;;;;;;;;;4969019;28;19918;-79
2023/11/29 13:20:45;;;;;;;;;;;;;;;;;;4984771;28;19984;-78
2023/11/29 13:23:13;;;;;;;;;;;;;;;;;;4984985;28;19918;-80
2023/11/29 13:25:40;;;;;;;;;;;;;;;;;;5012030;28;19911;-79
2023/11/29 13:28:06;;;;;;;;;;;;;;;;;;4952173;28;20373;-78
2023/11/29 13:30:32;;;;;;;;;;;;;;;;;;4936207;28;19976;-80
2023/11/29 13:33:03;;;;;;;;;;;;;;;;;;4949751;28;19918;-79
2023/11/29 13:35:28;;;;;;;;;;;;;;;;;;4943033;28;19965;-80
2023/11/29 13:37:54;;;;;;;;;;;;;;;;;;4965195;28;19915;-80
2023/11/29 13:40:20;;;;;;;;;;;;;;;;;;4967071;28;19914;-80
2023/11/29 13:42:46;;;;;;;;;;;;;;;;;;4966450;28;19997;-81
2023/11/29 13:45:14;;;;;;;;;;;;;;;;;;4966384;28;19949;-80
2023/11/29 13:47:40;;;;;;;;;;;;;;;;;;4965761;28;19925;-80
2023/11/29 13:50:07;;;;;;;;;;;;;;;;;;4983117;28;19957;-80
2023/11/29 13:52:33;;;;;;;;;;;;;;;;;;4968018;28;19914;-80
2023/11/29 13:54:59;;;;;;;;;;;;;;;;;;4966076;28;19921;-81
2023/11/29 13:57:25;;;;;;;;;;;;;;;;;;4981330;28;19981;-80
2023/11/29 13:59:50;;;;;;;;;;;;;;;;;;4966258;28;19957;-80
2023/11/29 14:02:16;;;;;;;;;;;;;;;;;;4966915;28;19911;-80
2023/11/29 14:04:42;;;;;;;;;;;;;;;;;;4984438;28;19920;-81
2023/11/29 14:07:08;;;;;;;;;;;;;;;;;;4985799;28;19949;-81
2023/11/29 14:09:34;;;;;;;;;;;;;;;;;;4967720;28;19914;-79
2023/11/29 14:11:59;;;;;;;;;;;;;;;;;;4974703;28;19911;-80
2023/11/29 14:14:25;;;;;;;;;;;;;;;;;;4966698;28;19915;-81
2023/11/29 14:16:51;;;;;;;;;;;;;;;;;;4966648;28;19914;-81
2023/11/29 14:19:17;;;;;;;;;;;;;;;;;;4983762;28;19993;-81
2023/11/29 14:21:42;;;;;;;;;;;;;;;;;;4968390;28;19918;-80
2023/11/29 14:24:08;;;;;;;;;;;;;;;;;;4951479;28;19976;-80
2023/11/29 14:26:34;;;;;;;;;;;;;;;;;;4980222;28;20345;-82
2023/11/29 14:29:00;;;;;;;;;;;;;;;;;;4985148;28;19915;-81
2023/11/29 14:31:26;;;;;;;;;;;;;;;;;;4985711;28;20278;-81
2023/11/29 14:33:53;;;;;;;;;;;;;;;;;;5004464;28;19918;-80
2023/11/29 14:36:19;;;;;;;;;;;;;;;;;;4986321;28;19913;-81
2023/11/29 14:38:44;;;;;;;;;;;;;;;;;;4986908;28;19957;-80
2023/11/29 14:41:10;;;;;;;;;;;;;;;;;;5002838;28;19910;-81
2023/11/29 14:43:36;;;;;;;;;;;;;;;;;;5005622;28;19921;-80
2023/11/29 14:46:02;;;;;;;;;;;;;;;;;;4991745;28;19933;-80
2023/11/29 14:48:29;;;;;;;;;;;;;;;;;;5007129;28;20266;-80
2023/11/29 14:50:56;;;;;;;;;;;;;;;;;;4991229;28;20081;-80
2023/11/29 14:53:21;;;;;;;;;;;;;;;;;;5006852;28;19949;-78
2023/11/29 14:55:47;;;;;;;;;;;;;;;;;;5004873;28;19964;-77
2023/11/29 14:58:13;;;;;;;;;;;;;;;;;;5004987;28;20344;-79
2023/11/29 15:00:39;;;;;;;;;;;;;;;;;;4990513;28;20374;-79
2023/11/29 15:03:04;;;;;;;;;;;;;;;;;;5005133;28;20296;-79
2023/11/29 15:05:30;;;;;;;;;;;;;;;;;;4988783;28;19997;-77
2023/11/29 15:07:56;;;;;;;;;;;;;;;;;;5002902;28;20456;-80
2023/11/29 15:10:22;;;;;;;;;;;;;;;;;;5002793;28;19914;-79
2023/11/29 15:12:50;;;;;;;;;;;;;;;;;;4968898;28;19925;-79
2023/11/29 15:15:15;;;;;;;;;;;;;;;;;;4999472;28;20008;-78
2023/11/29 15:17:41;;;;;;;;;;;;;;;;;;4999471;28;19914;-77
2023/11/29 15:20:07;;;;;;;;;;;;;;;;;;4985929;28;19915;-79
2023/11/29 15:22:33;;;;;;;;;;;;;;;;;;4969967;28;20050;-79
2023/11/29 15:24:58;;;;;;;;;;;;;;;;;;5003627;28;19921;-79
2023/11/29 15:27:25;;;;;;;;;;;;;;;;;;4952999;28;20606;-79
2023/11/29 15:29:51;;;;;;;;;;;;;;;;;;5002684;28;19914;-79
2023/11/29 15:32:17;;;;;;;;;;;;;;;;;;5003611;28;20270;-80
2023/11/29 15:34:42;;;;;;;;;;;;;;;;;;4988158;28;19914;-78
2023/11/29 15:37:08;;;;;;;;;;;;;;;;;;4986288;28;20488;-79
2023/11/29 15:39:34;;;;;;;;;;;;;;;;;;4987717;28;20263;-77
2023/11/29 15:41:59;;;;;;;;;;;;;;;;;;4970557;28;19914;-78
2023/11/29 15:44:25;;;;;;;;;;;;;;;;;;5001322;28;19945;-77
2023/11/29 15:46:51;;;;;;;;;;;;;;;;;;4984441;28;19920;-78
2023/11/29 15:49:16;;;;;;;;;;;;;;;;;;5000285;28;19910;-78
2023/11/29 15:51:42;;;;;;;;;;;;;;;;;;4975399;28;20401;-77
2023/11/29 15:54:08;;;;;;;;;;;;;;;;;;4999516;28;19914;-79
2023/11/29 15:56:34;;;;;;;;;;;;;;;;;;4988123;28;19915;-79
2023/11/29 15:58:59;;;;;;;;;;;;;;;;;;4986715;28;19941;-78
2023/11/29 16:01:25;;;;;;;;;;;;;;;;;;5001504;28;19922;-80
2023/11/29 16:03:51;;;;;;;;;;;;;;;;;;4987798;28;19933;-79
2023/11/29 16:06:17;;;;;;;;;;;;;;;;;;5002766;28;19915;-77
2023/11/29 16:08:42;;;;;;;;;;;;;;;;;;4985815;28;19933;-77
2023/11/29 16:11:08;;;;;;;;;;;;;;;;;;4990436;28;20231;-79
2023/11/29 16:13:34;;;;;;;;;;;;;;;;;;4988926;28;19914;-79
2023/11/29 16:16:00;;;;;;;;;;;;;;;;;;5004892;28;20017;-78
2023/11/29 16:18:27;;;;;;;;;;;;;;;;;;5020855;28;19918;-79
2023/11/29 16:20:53;;;;;;;;;;;;;;;;;;4985621;28;19922;-78
2023/11/29 16:23:19;;;;;;;;;;;;;;;;;;4977604;28;19957;-80
2023/11/29 16:25:45;;;;;;;;;;;;;;;;;;4988427;28;19941;-79
2023/11/29 16:28:14;;;;;;;;;;;;;;;;;;4993269;28;19959;-78
2023/11/29 16:30:39;;;;;;;;;;;;;;;;;;5009266;28;19913;-77
2023/11/29 16:33:05;;;;;;;;;;;;;;;;;;5009224;28;19921;-79
2023/11/29 16:35:31;;;;;;;;;;;;;;;;;;4991762;28;19981;-79